sensor_id;sensor_type;location;lat;lon;timestamp;P1;durP1;ratioP1;P2;durP2;ratioP2
2111;SDS011;1062;52.538;13.400;2024-03-02T00:00:05;44.50;;;34.37;;
2111;SDS011;1062;52.538;13.400;2024-03-02T00:02:42;47.87;;;32.63;;
2111;SDS011;1062;52.538;13.400;2024-03-02T00:05:16;47.83;;;34.00;;
2111;SDS011;1062;52.538;13.400;2024-03-02T00:07:56;52.10;;;34.50;;
2111;SDS011;1062;52.538;13.400;2024-03-02T00:10:25;46.93;;;31.17;;
2111;SDS011;1062;52.538;13.400;2024-03-02T00:12:55;50.57;;;33.70;;
2111;SDS011;1062;52.538;13.400;2024-03-02T00:18:11;53.50;;;34.30;;
2111;SDS011;1062;52.538;13.400;2024-03-02T00:20:38;53.97;;;35.10;;
2111;SDS011;1062;52.538;13.400;2024-03-02T00:23:05;56.90;;;35.00;;
2111;SDS011;1062;52.538;13.400;2024-03-02T00:25:39;58.33;;;36.10;;
2111;SDS011;1062;52.538;13.400;2024-03-02T00:28:10;52.50;;;34.37;;
2111;SDS011;1062;52.538;13.400;2024-03-02T00:33:23;47.27;;;33.20;;
2111;SDS011;1062;52.538;13.400;2024-03-02T00:35:51;47.70;;;33.00;;
2111;SDS011;1062;52.538;13.400;2024-03-02T00:38:17;54.80;;;34.80;;
2111;SDS011;1062;52.538;13.400;2024-03-02T00:40:43;53.33;;;37.30;;
2111;SDS011;1062;52.538;13.400;2024-03-02T00:43:26;53.10;;;34.77;;
2111;SDS011;1062;52.538;13.400;2024-03-02T00:46:18;52.07;;;35.40;;
2111;SDS011;1062;52.538;13.400;2024-03-02T00:49:05;52.43;;;35.20;;
2111;SDS011;1062;52.538;13.400;2024-03-02T00:51:46;47.40;;;33.40;;
2111;SDS011;1062;52.538;13.400;2024-03-02T00:54:14;61.07;;;37.70;;
2111;SDS011;1062;52.538;13.400;2024-03-02T00:56:40;59.80;;;37.50;;
2111;SDS011;1062;52.538;13.400;2024-03-02T00:59:07;58.47;;;38.13;;
2111;SDS011;1062;52.538;13.400;2024-03-02T01:01:33;52.90;;;33.73;;
2111;SDS011;1062;52.538;13.400;2024-03-02T01:03:59;56.47;;;37.37;;
2111;SDS011;1062;52.538;13.400;2024-03-02T01:06:25;59.23;;;36.33;;
2111;SDS011;1062;52.538;13.400;2024-03-02T01:08:50;46.13;;;33.03;;
2111;SDS011;1062;52.538;13.400;2024-03-02T01:11:17;51.87;;;33.00;;
2111;SDS011;1062;52.538;13.400;2024-03-02T01:13:43;51.07;;;34.60;;
2111;SDS011;1062;52.538;13.400;2024-03-02T01:16:09;50.40;;;34.70;;
2111;SDS011;1062;52.538;13.400;2024-03-02T01:18:35;53.47;;;36.13;;
2111;SDS011;1062;52.538;13.400;2024-03-02T01:21:00;60.20;;;35.90;;
2111;SDS011;1062;52.538;13.400;2024-03-02T01:23:26;57.97;;;36.10;;
2111;SDS011;1062;52.538;13.400;2024-03-02T01:25:52;56.40;;;36.00;;
2111;SDS011;1062;52.538;13.400;2024-03-02T01:28:18;51.00;;;34.53;;
2111;SDS011;1062;52.538;13.400;2024-03-02T01:30:44;53.67;;;37.30;;
2111;SDS011;1062;52.538;13.400;2024-03-02T01:33:10;61.17;;;38.27;;
2111;SDS011;1062;52.538;13.400;2024-03-02T01:35:36;46.07;;;33.67;;
2111;SDS011;1062;52.538;13.400;2024-03-02T01:38:02;54.73;;;33.67;;
2111;SDS011;1062;52.538;13.400;2024-03-02T01:40:28;52.80;;;35.47;;
2111;SDS011;1062;52.538;13.400;2024-03-02T01:42:54;53.13;;;35.23;;
2111;SDS011;1062;52.538;13.400;2024-03-02T01:45:20;54.80;;;35.50;;
2111;SDS011;1062;52.538;13.400;2024-03-02T01:47:47;58.20;;;36.20;;
2111;SDS011;1062;52.538;13.400;2024-03-02T01:50:13;56.43;;;36.80;;
2111;SDS011;1062;52.538;13.400;2024-03-02T01:52:39;53.17;;;34.10;;
2111;SDS011;1062;52.538;13.400;2024-03-02T01:55:05;53.93;;;34.93;;
2111;SDS011;1062;52.538;13.400;2024-03-02T01:57:32;58.10;;;35.33;;
2111;SDS011;1062;52.538;13.400;2024-03-02T01:59:58;55.30;;;36.50;;
2111;SDS011;1062;52.538;13.400;2024-03-02T02:02:25;60.97;;;35.60;;
2111;SDS011;1062;52.538;13.400;2024-03-02T02:04:50;63.07;;;37.53;;
2111;SDS011;1062;52.538;13.400;2024-03-02T02:07:16;59.50;;;38.97;;
2111;SDS011;1062;52.538;13.400;2024-03-02T02:09:42;51.53;;;36.10;;
2111;SDS011;1062;52.538;13.400;2024-03-02T02:12:08;57.83;;;37.97;;
2111;SDS011;1062;52.538;13.400;2024-03-02T02:14:35;53.13;;;36.33;;
2111;SDS011;1062;52.538;13.400;2024-03-02T02:17:01;58.60;;;40.27;;
2111;SDS011;1062;52.538;13.400;2024-03-02T02:19:26;57.23;;;37.50;;
2111;SDS011;1062;52.538;13.400;2024-03-02T02:21:52;56.63;;;35.90;;
2111;SDS011;1062;52.538;13.400;2024-03-02T02:24:17;51.10;;;33.47;;
2111;SDS011;1062;52.538;13.400;2024-03-02T02:26:43;51.70;;;35.80;;
2111;SDS011;1062;52.538;13.400;2024-03-02T02:29:09;52.03;;;34.80;;
2111;SDS011;1062;52.538;13.400;2024-03-02T02:31:38;55.63;;;38.17;;
2111;SDS011;1062;52.538;13.400;2024-03-02T02:34:04;52.23;;;36.67;;
2111;SDS011;1062;52.538;13.400;2024-03-02T02:36:30;57.30;;;36.07;;
2111;SDS011;1062;52.538;13.400;2024-03-02T02:39:00;60.47;;;37.07;;
2111;SDS011;1062;52.538;13.400;2024-03-02T02:41:31;55.77;;;36.10;;
2111;SDS011;1062;52.538;13.400;2024-03-02T02:43:59;53.77;;;38.07;;
2111;SDS011;1062;52.538;13.400;2024-03-02T02:46:24;55.33;;;38.20;;
2111;SDS011;1062;52.538;13.400;2024-03-02T02:48:50;54.70;;;35.80;;
2111;SDS011;1062;52.538;13.400;2024-03-02T02:51:18;51.60;;;36.47;;
2111;SDS011;1062;52.538;13.400;2024-03-02T02:53:43;54.77;;;37.27;;
2111;SDS011;1062;52.538;13.400;2024-03-02T02:56:09;56.67;;;39.93;;
2111;SDS011;1062;52.538;13.400;2024-03-02T02:58:35;60.97;;;40.13;;
2111;SDS011;1062;52.538;13.400;2024-03-02T03:01:01;57.63;;;39.27;;
2111;SDS011;1062;52.538;13.400;2024-03-02T03:03:27;58.50;;;36.37;;
2111;SDS011;1062;52.538;13.400;2024-03-02T03:05:52;60.20;;;37.70;;
2111;SDS011;1062;52.538;13.400;2024-03-02T03:08:18;58.17;;;36.07;;
2111;SDS011;1062;52.538;13.400;2024-03-02T03:10:43;59.60;;;37.57;;
2111;SDS011;1062;52.538;13.400;2024-03-02T03:13:09;55.20;;;37.40;;
2111;SDS011;1062;52.538;13.400;2024-03-02T03:15:35;62.63;;;38.07;;
2111;SDS011;1062;52.538;13.400;2024-03-02T03:18:04;59.00;;;35.97;;
2111;SDS011;1062;52.538;13.400;2024-03-02T03:20:30;59.03;;;36.53;;
2111;SDS011;1062;52.538;13.400;2024-03-02T03:22:56;58.60;;;36.50;;
2111;SDS011;1062;52.538;13.400;2024-03-02T03:25:22;57.03;;;37.17;;
2111;SDS011;1062;52.538;13.400;2024-03-02T03:27:48;52.70;;;35.67;;
2111;SDS011;1062;52.538;13.400;2024-03-02T03:30:14;44.60;;;32.87;;
2111;SDS011;1062;52.538;13.400;2024-03-02T03:32:40;55.80;;;34.00;;
2111;SDS011;1062;52.538;13.400;2024-03-02T03:35:06;55.40;;;35.13;;
2111;SDS011;1062;52.538;13.400;2024-03-02T03:37:32;47.57;;;33.87;;
2111;SDS011;1062;52.538;13.400;2024-03-02T03:40:01;51.50;;;34.17;;
2111;SDS011;1062;52.538;13.400;2024-03-02T03:42:27;58.23;;;33.77;;
2111;SDS011;1062;52.538;13.400;2024-03-02T03:44:53;52.27;;;33.83;;
2111;SDS011;1062;52.538;13.400;2024-03-02T03:47:19;55.90;;;35.63;;
2111;SDS011;1062;52.538;13.400;2024-03-02T03:49:45;46.70;;;33.57;;
2111;SDS011;1062;52.538;13.400;2024-03-02T03:52:11;52.00;;;32.70;;
2111;SDS011;1062;52.538;13.400;2024-03-02T03:54:36;53.47;;;36.17;;
2111;SDS011;1062;52.538;13.400;2024-03-02T03:57:03;48.73;;;32.30;;
2111;SDS011;1062;52.538;13.400;2024-03-02T03:59:29;53.27;;;34.03;;
2111;SDS011;1062;52.538;13.400;2024-03-02T04:01:55;53.13;;;34.10;;
2111;SDS011;1062;52.538;13.400;2024-03-02T04:04:21;52.57;;;34.53;;
2111;SDS011;1062;52.538;13.400;2024-03-02T04:06:46;63.80;;;34.90;;
2111;SDS011;1062;52.538;13.400;2024-03-02T04:09:12;51.17;;;33.20;;
2111;SDS011;1062;52.538;13.400;2024-03-02T04:11:38;50.90;;;31.73;;
2111;SDS011;1062;52.538;13.400;2024-03-02T04:14:03;48.73;;;33.27;;
2111;SDS011;1062;52.538;13.400;2024-03-02T04:16:31;47.37;;;33.30;;
2111;SDS011;1062;52.538;13.400;2024-03-02T04:18:56;43.57;;;30.00;;
2111;SDS011;1062;52.538;13.400;2024-03-02T04:21:22;46.87;;;32.93;;
2111;SDS011;1062;52.538;13.400;2024-03-02T04:23:47;48.30;;;31.37;;
2111;SDS011;1062;52.538;13.400;2024-03-02T04:26:13;51.80;;;34.87;;
2111;SDS011;1062;52.538;13.400;2024-03-02T04:28:39;46.23;;;29.70;;
2111;SDS011;1062;52.538;13.400;2024-03-02T04:31:05;47.30;;;32.47;;
2111;SDS011;1062;52.538;13.400;2024-03-02T04:33:31;46.93;;;33.57;;
2111;SDS011;1062;52.538;13.400;2024-03-02T04:35:56;50.03;;;33.03;;
2111;SDS011;1062;52.538;13.400;2024-03-02T04:38:22;50.80;;;34.37;;
2111;SDS011;1062;52.538;13.400;2024-03-02T04:40:48;37.43;;;28.10;;
2111;SDS011;1062;52.538;13.400;2024-03-02T04:43:13;45.70;;;32.53;;
2111;SDS011;1062;52.538;13.400;2024-03-02T04:45:42;47.80;;;30.77;;
2111;SDS011;1062;52.538;13.400;2024-03-02T04:48:08;48.43;;;32.37;;
2111;SDS011;1062;52.538;13.400;2024-03-02T04:50:33;46.53;;;32.10;;
2111;SDS011;1062;52.538;13.400;2024-03-02T04:52:59;43.83;;;28.90;;
2111;SDS011;1062;52.538;13.400;2024-03-02T04:55:24;37.17;;;28.80;;
2111;SDS011;1062;52.538;13.400;2024-03-02T04:58:10;46.10;;;29.03;;
2111;SDS011;1062;52.538;13.400;2024-03-02T05:00:35;51.00;;;31.00;;
2111;SDS011;1062;52.538;13.400;2024-03-02T05:03:02;40.60;;;28.77;;
2111;SDS011;1062;52.538;13.400;2024-03-02T05:05:27;46.37;;;32.30;;
2111;SDS011;1062;52.538;13.400;2024-03-02T05:07:53;41.03;;;27.20;;
2111;SDS011;1062;52.538;13.400;2024-03-02T05:10:19;43.90;;;30.60;;
2111;SDS011;1062;52.538;13.400;2024-03-02T05:12:45;45.67;;;30.40;;
2111;SDS011;1062;52.538;13.400;2024-03-02T05:15:11;51.67;;;30.60;;
2111;SDS011;1062;52.538;13.400;2024-03-02T05:17:41;47.63;;;30.20;;
2111;SDS011;1062;52.538;13.400;2024-03-02T05:20:10;43.50;;;30.13;;
2111;SDS011;1062;52.538;13.400;2024-03-02T05:22:36;43.87;;;30.17;;
2111;SDS011;1062;52.538;13.400;2024-03-02T05:25:05;39.93;;;30.10;;
2111;SDS011;1062;52.538;13.400;2024-03-02T05:27:31;42.27;;;30.23;;
2111;SDS011;1062;52.538;13.400;2024-03-02T05:30:00;45.00;;;31.33;;
2111;SDS011;1062;52.538;13.400;2024-03-02T05:32:26;47.67;;;31.87;;
2111;SDS011;1062;52.538;13.400;2024-03-02T05:34:52;46.57;;;32.53;;
2111;SDS011;1062;52.538;13.400;2024-03-02T05:37:18;47.10;;;30.30;;
2111;SDS011;1062;52.538;13.400;2024-03-02T05:39:43;45.07;;;29.23;;
2111;SDS011;1062;52.538;13.400;2024-03-02T05:42:09;46.00;;;31.90;;
2111;SDS011;1062;52.538;13.400;2024-03-02T05:44:37;49.60;;;33.40;;
2111;SDS011;1062;52.538;13.400;2024-03-02T05:47:03;39.27;;;28.20;;
2111;SDS011;1062;52.538;13.400;2024-03-02T05:49:29;47.47;;;31.17;;
2111;SDS011;1062;52.538;13.400;2024-03-02T05:51:55;46.67;;;32.70;;
2111;SDS011;1062;52.538;13.400;2024-03-02T05:54:20;56.47;;;32.77;;
2111;SDS011;1062;52.538;13.400;2024-03-02T05:56:46;46.83;;;33.17;;
2111;SDS011;1062;52.538;13.400;2024-03-02T05:59:12;46.17;;;32.20;;
2111;SDS011;1062;52.538;13.400;2024-03-02T06:01:47;48.00;;;33.33;;
2111;SDS011;1062;52.538;13.400;2024-03-02T06:04:15;48.27;;;31.60;;
2111;SDS011;1062;52.538;13.400;2024-03-02T06:06:41;47.03;;;34.23;;
2111;SDS011;1062;52.538;13.400;2024-03-02T06:09:06;63.27;;;36.30;;
2111;SDS011;1062;52.538;13.400;2024-03-02T06:11:38;61.73;;;37.83;;
2111;SDS011;1062;52.538;13.400;2024-03-02T06:14:08;57.27;;;35.97;;
2111;SDS011;1062;52.538;13.400;2024-03-02T06:16:34;53.40;;;36.30;;
2111;SDS011;1062;52.538;13.400;2024-03-02T06:19:00;53.23;;;36.07;;
2111;SDS011;1062;52.538;13.400;2024-03-02T06:21:26;50.60;;;33.57;;
2111;SDS011;1062;52.538;13.400;2024-03-02T06:23:52;52.90;;;35.20;;
2111;SDS011;1062;52.538;13.400;2024-03-02T06:26:19;59.93;;;36.80;;
2111;SDS011;1062;52.538;13.400;2024-03-02T06:28:45;59.60;;;38.80;;
2111;SDS011;1062;52.538;13.400;2024-03-02T06:31:10;53.93;;;36.30;;
2111;SDS011;1062;52.538;13.400;2024-03-02T06:33:36;58.37;;;37.00;;
2111;SDS011;1062;52.538;13.400;2024-03-02T06:36:02;55.67;;;36.80;;
2111;SDS011;1062;52.538;13.400;2024-03-02T06:38:28;64.97;;;38.47;;
2111;SDS011;1062;52.538;13.400;2024-03-02T06:40:54;52.83;;;36.23;;
2111;SDS011;1062;52.538;13.400;2024-03-02T06:43:23;56.67;;;35.77;;
2111;SDS011;1062;52.538;13.400;2024-03-02T06:45:51;55.80;;;34.17;;
2111;SDS011;1062;52.538;13.400;2024-03-02T06:48:18;57.43;;;35.87;;
2111;SDS011;1062;52.538;13.400;2024-03-02T06:50:48;61.30;;;34.43;;
2111;SDS011;1062;52.538;13.400;2024-03-02T06:53:15;51.47;;;32.40;;
2111;SDS011;1062;52.538;13.400;2024-03-02T06:55:44;58.53;;;34.07;;
2111;SDS011;1062;52.538;13.400;2024-03-02T06:58:11;53.73;;;35.30;;
2111;SDS011;1062;52.538;13.400;2024-03-02T07:00:37;57.03;;;36.50;;
2111;SDS011;1062;52.538;13.400;2024-03-02T07:03:02;56.40;;;35.93;;
2111;SDS011;1062;52.538;13.400;2024-03-02T07:05:28;52.53;;;34.50;;
2111;SDS011;1062;52.538;13.400;2024-03-02T07:07:53;50.47;;;33.83;;
2111;SDS011;1062;52.538;13.400;2024-03-02T07:10:19;49.90;;;35.07;;
2111;SDS011;1062;52.538;13.400;2024-03-02T07:12:45;54.40;;;34.60;;
2111;SDS011;1062;52.538;13.400;2024-03-02T07:15:10;54.97;;;34.30;;
2111;SDS011;1062;52.538;13.400;2024-03-02T07:17:46;54.83;;;33.80;;
2111;SDS011;1062;52.538;13.400;2024-03-02T07:20:12;52.17;;;32.97;;
2111;SDS011;1062;52.538;13.400;2024-03-02T07:22:37;51.07;;;34.43;;
2111;SDS011;1062;52.538;13.400;2024-03-02T07:25:04;57.20;;;34.80;;
2111;SDS011;1062;52.538;13.400;2024-03-02T07:27:32;48.63;;;32.53;;
2111;SDS011;1062;52.538;13.400;2024-03-02T07:29:58;54.30;;;33.43;;
2111;SDS011;1062;52.538;13.400;2024-03-02T07:32:24;50.20;;;33.77;;
2111;SDS011;1062;52.538;13.400;2024-03-02T07:34:49;50.50;;;35.80;;
2111;SDS011;1062;52.538;13.400;2024-03-02T07:37:16;58.73;;;34.70;;
2111;SDS011;1062;52.538;13.400;2024-03-02T07:39:42;51.60;;;34.93;;
2111;SDS011;1062;52.538;13.400;2024-03-02T07:42:09;52.57;;;34.53;;
2111;SDS011;1062;52.538;13.400;2024-03-02T07:44:35;46.97;;;34.00;;
2111;SDS011;1062;52.538;13.400;2024-03-02T07:47:00;49.97;;;33.67;;
2111;SDS011;1062;52.538;13.400;2024-03-02T07:49:26;44.47;;;31.70;;
2111;SDS011;1062;52.538;13.400;2024-03-02T07:51:52;53.23;;;31.73;;
2111;SDS011;1062;52.538;13.400;2024-03-02T07:54:17;50.40;;;31.40;;
2111;SDS011;1062;52.538;13.400;2024-03-02T07:56:43;53.90;;;34.30;;
2111;SDS011;1062;52.538;13.400;2024-03-02T07:59:09;57.07;;;33.80;;
2111;SDS011;1062;52.538;13.400;2024-03-02T08:01:35;52.40;;;34.10;;
2111;SDS011;1062;52.538;13.400;2024-03-02T08:04:01;51.70;;;34.60;;
2111;SDS011;1062;52.538;13.400;2024-03-02T08:06:29;51.13;;;32.70;;
2111;SDS011;1062;52.538;13.400;2024-03-02T08:08:55;52.53;;;33.77;;
2111;SDS011;1062;52.538;13.400;2024-03-02T08:11:25;49.27;;;32.27;;
2111;SDS011;1062;52.538;13.400;2024-03-02T08:13:52;49.40;;;31.93;;
2111;SDS011;1062;52.538;13.400;2024-03-02T08:16:19;52.10;;;32.13;;
2111;SDS011;1062;52.538;13.400;2024-03-02T08:18:47;60.20;;;34.77;;
2111;SDS011;1062;52.538;13.400;2024-03-02T08:21:13;47.90;;;31.13;;
2111;SDS011;1062;52.538;13.400;2024-03-02T08:23:38;54.87;;;34.87;;
2111;SDS011;1062;52.538;13.400;2024-03-02T08:26:06;48.60;;;33.50;;
2111;SDS011;1062;52.538;13.400;2024-03-02T08:28:32;46.90;;;31.73;;
2111;SDS011;1062;52.538;13.400;2024-03-02T08:30:58;47.33;;;32.47;;
2111;SDS011;1062;52.538;13.400;2024-03-02T08:33:23;42.43;;;31.37;;
2111;SDS011;1062;52.538;13.400;2024-03-02T08:35:49;54.97;;;33.87;;
2111;SDS011;1062;52.538;13.400;2024-03-02T08:38:15;45.70;;;30.97;;
2111;SDS011;1062;52.538;13.400;2024-03-02T08:40:40;49.30;;;29.60;;
2111;SDS011;1062;52.538;13.400;2024-03-02T08:43:06;44.77;;;30.87;;
2111;SDS011;1062;52.538;13.400;2024-03-02T08:45:32;49.57;;;29.30;;
2111;SDS011;1062;52.538;13.400;2024-03-02T08:47:59;50.40;;;33.43;;
2111;SDS011;1062;52.538;13.400;2024-03-02T08:50:25;46.57;;;32.67;;
2111;SDS011;1062;52.538;13.400;2024-03-02T08:52:50;48.53;;;32.10;;
2111;SDS011;1062;52.538;13.400;2024-03-02T08:55:16;82.73;;;53.13;;
2111;SDS011;1062;52.538;13.400;2024-03-02T08:57:42;42.33;;;29.57;;
2111;SDS011;1062;52.538;13.400;2024-03-02T09:00:08;54.60;;;31.37;;
2111;SDS011;1062;52.538;13.400;2024-03-02T09:02:34;54.17;;;31.50;;
2111;SDS011;1062;52.538;13.400;2024-03-02T09:05:00;37.70;;;27.07;;
2111;SDS011;1062;52.538;13.400;2024-03-02T09:07:26;44.47;;;29.93;;
2111;SDS011;1062;52.538;13.400;2024-03-02T09:09:51;40.73;;;26.97;;
2111;SDS011;1062;52.538;13.400;2024-03-02T09:12:17;47.37;;;29.60;;
2111;SDS011;1062;52.538;13.400;2024-03-02T09:14:43;37.37;;;28.40;;
2111;SDS011;1062;52.538;13.400;2024-03-02T09:17:09;39.23;;;27.10;;
2111;SDS011;1062;52.538;13.400;2024-03-02T09:19:36;44.47;;;28.77;;
2111;SDS011;1062;52.538;13.400;2024-03-02T09:22:02;39.17;;;27.07;;
2111;SDS011;1062;52.538;13.400;2024-03-02T09:24:30;42.03;;;26.90;;
2111;SDS011;1062;52.538;13.400;2024-03-02T09:26:56;45.17;;;28.53;;
2111;SDS011;1062;52.538;13.400;2024-03-02T09:29:22;41.33;;;29.20;;
2111;SDS011;1062;52.538;13.400;2024-03-02T09:31:47;44.23;;;29.83;;
2111;SDS011;1062;52.538;13.400;2024-03-02T09:34:14;44.03;;;31.20;;
2111;SDS011;1062;52.538;13.400;2024-03-02T09:36:40;47.23;;;30.00;;
2111;SDS011;1062;52.538;13.400;2024-03-02T09:39:09;51.07;;;29.80;;
2111;SDS011;1062;52.538;13.400;2024-03-02T09:41:36;44.40;;;31.00;;
2111;SDS011;1062;52.538;13.400;2024-03-02T09:44:02;45.87;;;28.80;;
2111;SDS011;1062;52.538;13.400;2024-03-02T09:46:28;47.20;;;28.30;;
2111;SDS011;1062;52.538;13.400;2024-03-02T09:48:54;48.50;;;29.17;;
2111;SDS011;1062;52.538;13.400;2024-03-02T09:51:19;44.30;;;30.10;;
2111;SDS011;1062;52.538;13.400;2024-03-02T09:53:45;46.07;;;28.40;;
2111;SDS011;1062;52.538;13.400;2024-03-02T09:56:12;37.03;;;26.03;;
2111;SDS011;1062;52.538;13.400;2024-03-02T09:58:38;38.33;;;29.60;;
2111;SDS011;1062;52.538;13.400;2024-03-02T10:01:07;40.33;;;26.47;;
2111;SDS011;1062;52.538;13.400;2024-03-02T10:03:35;36.10;;;25.73;;
2111;SDS011;1062;52.538;13.400;2024-03-02T10:08:50;37.47;;;24.63;;
2111;SDS011;1062;52.538;13.400;2024-03-02T10:16:33;40.13;;;22.63;;
2111;SDS011;1062;52.538;13.400;2024-03-02T10:19:14;27.43;;;22.00;;
2111;SDS011;1062;52.538;13.400;2024-03-02T10:21:47;34.53;;;22.93;;
2111;SDS011;1062;52.538;13.400;2024-03-02T10:24:17;29.30;;;22.20;;
2111;SDS011;1062;52.538;13.400;2024-03-02T10:26:44;27.77;;;21.13;;
2111;SDS011;1062;52.538;13.400;2024-03-02T10:29:10;27.23;;;20.17;;
2111;SDS011;1062;52.538;13.400;2024-03-02T10:31:40;32.30;;;21.53;;
2111;SDS011;1062;52.538;13.400;2024-03-02T10:34:11;35.13;;;22.83;;
2111;SDS011;1062;52.538;13.400;2024-03-02T10:36:42;39.67;;;25.77;;
2111;SDS011;1062;52.538;13.400;2024-03-02T10:39:09;30.90;;;23.00;;
2111;SDS011;1062;52.538;13.400;2024-03-02T10:41:36;32.73;;;23.93;;
2111;SDS011;1062;52.538;13.400;2024-03-02T10:44:03;30.03;;;22.73;;
2111;SDS011;1062;52.538;13.400;2024-03-02T10:46:33;27.07;;;20.57;;
2111;SDS011;1062;52.538;13.400;2024-03-02T10:49:00;30.57;;;22.00;;
2111;SDS011;1062;52.538;13.400;2024-03-02T10:51:29;28.03;;;20.20;;
2111;SDS011;1062;52.538;13.400;2024-03-02T10:54:01;27.63;;;19.20;;
2111;SDS011;1062;52.538;13.400;2024-03-02T11:01:52;22.33;;;17.97;;
2111;SDS011;1062;52.538;13.400;2024-03-02T11:04:22;26.73;;;21.03;;
2111;SDS011;1062;52.538;13.400;2024-03-02T11:06:50;24.23;;;17.37;;
2111;SDS011;1062;52.538;13.400;2024-03-02T11:09:21;29.50;;;20.10;;
2111;SDS011;1062;52.538;13.400;2024-03-02T11:11:54;27.13;;;18.30;;
2111;SDS011;1062;52.538;13.400;2024-03-02T11:14:27;25.77;;;18.13;;
2111;SDS011;1062;52.538;13.400;2024-03-02T11:17:01;26.20;;;17.40;;
2111;SDS011;1062;52.538;13.400;2024-03-02T11:19:28;24.20;;;18.43;;
2111;SDS011;1062;52.538;13.400;2024-03-02T11:21:54;24.33;;;17.83;;
2111;SDS011;1062;52.538;13.400;2024-03-02T11:26:46;24.17;;;17.60;;
2111;SDS011;1062;52.538;13.400;2024-03-02T11:29:42;21.77;;;16.33;;
2111;SDS011;1062;52.538;13.400;2024-03-02T11:32:13;32.07;;;20.83;;
2111;SDS011;1062;52.538;13.400;2024-03-02T11:34:41;25.70;;;18.77;;
2111;SDS011;1062;52.538;13.400;2024-03-02T11:37:17;23.40;;;15.50;;
2111;SDS011;1062;52.538;13.400;2024-03-02T11:39:49;22.70;;;14.97;;
2111;SDS011;1062;52.538;13.400;2024-03-02T11:42:15;25.50;;;15.97;;
2111;SDS011;1062;52.538;13.400;2024-03-02T11:44:42;23.73;;;17.97;;
2111;SDS011;1062;52.538;13.400;2024-03-02T11:47:10;23.00;;;17.57;;
2111;SDS011;1062;52.538;13.400;2024-03-02T11:52:06;24.07;;;17.70;;
2111;SDS011;1062;52.538;13.400;2024-03-02T11:54:34;26.20;;;17.73;;
2111;SDS011;1062;52.538;13.400;2024-03-02T11:57:11;22.27;;;16.93;;
2111;SDS011;1062;52.538;13.400;2024-03-02T11:59:37;25.13;;;16.07;;
2111;SDS011;1062;52.538;13.400;2024-03-02T12:02:03;21.00;;;17.20;;
2111;SDS011;1062;52.538;13.400;2024-03-02T12:04:29;23.53;;;17.00;;
2111;SDS011;1062;52.538;13.400;2024-03-02T12:09:24;20.37;;;16.83;;
2111;SDS011;1062;52.538;13.400;2024-03-02T12:12:07;22.70;;;15.37;;
2111;SDS011;1062;52.538;13.400;2024-03-02T12:14:35;21.17;;;14.53;;
2111;SDS011;1062;52.538;13.400;2024-03-02T12:17:02;23.33;;;16.17;;
2111;SDS011;1062;52.538;13.400;2024-03-02T12:19:29;21.00;;;15.53;;
2111;SDS011;1062;52.538;13.400;2024-03-02T12:21:58;19.13;;;16.23;;
2111;SDS011;1062;52.538;13.400;2024-03-02T12:24:26;23.37;;;14.57;;
2111;SDS011;1062;52.538;13.400;2024-03-02T12:26:52;22.83;;;16.07;;
2111;SDS011;1062;52.538;13.400;2024-03-02T12:29:19;23.97;;;14.60;;
2111;SDS011;1062;52.538;13.400;2024-03-02T12:31:45;19.43;;;15.73;;
2111;SDS011;1062;52.538;13.400;2024-03-02T12:34:17;25.03;;;17.70;;
2111;SDS011;1062;52.538;13.400;2024-03-02T12:36:45;22.23;;;15.97;;
2111;SDS011;1062;52.538;13.400;2024-03-02T12:39:14;21.10;;;16.07;;
2111;SDS011;1062;52.538;13.400;2024-03-02T12:41:43;22.30;;;16.33;;
2111;SDS011;1062;52.538;13.400;2024-03-02T12:44:09;20.40;;;15.17;;
2111;SDS011;1062;52.538;13.400;2024-03-02T12:46:35;21.23;;;15.70;;
2111;SDS011;1062;52.538;13.400;2024-03-02T12:49:10;17.70;;;14.33;;
2111;SDS011;1062;52.538;13.400;2024-03-02T12:51:40;19.60;;;14.30;;
2111;SDS011;1062;52.538;13.400;2024-03-02T12:54:07;20.40;;;15.20;;
2111;SDS011;1062;52.538;13.400;2024-03-02T12:56:34;20.77;;;14.80;;
2111;SDS011;1062;52.538;13.400;2024-03-02T12:59:01;18.60;;;13.70;;
2111;SDS011;1062;52.538;13.400;2024-03-02T13:01:26;23.53;;;13.90;;
2111;SDS011;1062;52.538;13.400;2024-03-02T13:03:52;22.77;;;15.20;;
2111;SDS011;1062;52.538;13.400;2024-03-02T13:06:20;16.90;;;14.10;;
2111;SDS011;1062;52.538;13.400;2024-03-02T13:08:46;19.30;;;14.00;;
2111;SDS011;1062;52.538;13.400;2024-03-02T13:11:12;21.57;;;14.00;;
2111;SDS011;1062;52.538;13.400;2024-03-02T13:13:38;19.73;;;13.93;;
2111;SDS011;1062;52.538;13.400;2024-03-02T13:16:11;19.40;;;13.60;;
2111;SDS011;1062;52.538;13.400;2024-03-02T13:18:40;21.57;;;14.47;;
2111;SDS011;1062;52.538;13.400;2024-03-02T13:21:06;23.30;;;17.33;;
2111;SDS011;1062;52.538;13.400;2024-03-02T13:23:32;19.50;;;13.53;;
2111;SDS011;1062;52.538;13.400;2024-03-02T13:25:58;18.20;;;12.23;;
2111;SDS011;1062;52.538;13.400;2024-03-02T13:28:25;16.53;;;12.33;;
2111;SDS011;1062;52.538;13.400;2024-03-02T13:30:51;21.30;;;14.73;;
2111;SDS011;1062;52.538;13.400;2024-03-02T13:33:17;19.30;;;14.30;;
2111;SDS011;1062;52.538;13.400;2024-03-02T13:35:50;17.87;;;13.80;;
2111;SDS011;1062;52.538;13.400;2024-03-02T13:38:19;18.10;;;13.50;;
2111;SDS011;1062;52.538;13.400;2024-03-02T13:40:46;20.07;;;14.73;;
2111;SDS011;1062;52.538;13.400;2024-03-02T13:43:15;17.73;;;13.17;;
2111;SDS011;1062;52.538;13.400;2024-03-02T13:45:42;18.17;;;13.90;;
2111;SDS011;1062;52.538;13.400;2024-03-02T13:48:07;15.93;;;12.80;;
2111;SDS011;1062;52.538;13.400;2024-03-02T13:50:33;17.80;;;13.30;;
2111;SDS011;1062;52.538;13.400;2024-03-02T13:52:58;15.07;;;13.07;;
2111;SDS011;1062;52.538;13.400;2024-03-02T13:55:24;18.43;;;12.87;;
2111;SDS011;1062;52.538;13.400;2024-03-02T13:57:49;18.03;;;13.83;;
2111;SDS011;1062;52.538;13.400;2024-03-02T14:00:16;17.10;;;12.73;;
2111;SDS011;1062;52.538;13.400;2024-03-02T14:02:42;20.43;;;12.97;;
2111;SDS011;1062;52.538;13.400;2024-03-02T14:05:08;17.97;;;13.60;;
2111;SDS011;1062;52.538;13.400;2024-03-02T14:07:38;17.63;;;12.93;;
2111;SDS011;1062;52.538;13.400;2024-03-02T14:10:04;16.57;;;13.43;;
2111;SDS011;1062;52.538;13.400;2024-03-02T14:12:30;17.77;;;13.27;;
2111;SDS011;1062;52.538;13.400;2024-03-02T14:14:56;19.47;;;13.30;;
2111;SDS011;1062;52.538;13.400;2024-03-02T14:17:27;16.53;;;14.03;;
2111;SDS011;1062;52.538;13.400;2024-03-02T14:19:53;19.90;;;12.50;;
2111;SDS011;1062;52.538;13.400;2024-03-02T14:22:18;17.40;;;12.40;;
2111;SDS011;1062;52.538;13.400;2024-03-02T14:24:44;15.73;;;11.90;;
2111;SDS011;1062;52.538;13.400;2024-03-02T14:27:11;15.10;;;11.30;;
2111;SDS011;1062;52.538;13.400;2024-03-02T14:29:36;13.70;;;11.13;;
2111;SDS011;1062;52.538;13.400;2024-03-02T14:32:04;15.13;;;11.07;;
2111;SDS011;1062;52.538;13.400;2024-03-02T14:34:30;13.67;;;10.03;;
2111;SDS011;1062;52.538;13.400;2024-03-02T14:36:56;14.70;;;10.40;;
2111;SDS011;1062;52.538;13.400;2024-03-02T14:39:21;17.20;;;11.40;;
2111;SDS011;1062;52.538;13.400;2024-03-02T14:41:47;18.27;;;12.03;;
2111;SDS011;1062;52.538;13.400;2024-03-02T14:44:13;13.70;;;9.20;;
2111;SDS011;1062;52.538;13.400;2024-03-02T14:46:40;12.30;;;8.70;;
2111;SDS011;1062;52.538;13.400;2024-03-02T14:49:06;12.60;;;10.60;;
2111;SDS011;1062;52.538;13.400;2024-03-02T14:51:32;13.10;;;9.60;;
2111;SDS011;1062;52.538;13.400;2024-03-02T14:53:58;14.30;;;9.93;;
2111;SDS011;1062;52.538;13.400;2024-03-02T14:56:23;13.07;;;9.50;;
2111;SDS011;1062;52.538;13.400;2024-03-02T14:58:49;14.60;;;10.20;;
2111;SDS011;1062;52.538;13.400;2024-03-02T15:01:16;11.47;;;9.27;;